sensor_id;sensor_type;location;lat;lon;timestamp;temperature;humidity
32107;DHT22;18622;51.998;10.440;2023-07-08T03:35:24;14.50;99.90
32107;DHT22;18622;51.998;10.440;2023-07-08T03:37:52;14.60;99.90
32107;DHT22;18622;51.998;10.440;2023-07-08T03:40:20;14.60;99.90
32107;DHT22;18622;51.998;10.440;2023-07-08T03:42:48;14.60;99.90
32107;DHT22;18622;51.998;10.440;2023-07-08T03:45:15;14.60;99.90
32107;DHT22;18622;51.998;10.440;2023-07-08T03:47:43;14.70;99.90
32107;DHT22;18622;51.998;10.440;2023-07-08T03:50:20;14.80;99.90
32107;DHT22;18622;51.998;10.440;2023-07-08T03:52:49;14.80;99.90
32107;DHT22;18622;51.998;10.440;2023-07-08T03:55:16;14.90;99.90
32107;DHT22;18622;51.998;10.440;2023-07-08T03:57:44;14.90;99.90
32107;DHT22;18622;51.998;10.440;2023-07-08T04:00:13;15.00;99.90
32107;DHT22;18622;51.998;10.440;2023-07-08T04:02:41;15.10;99.90
32107;DHT22;18622;51.998;10.440;2023-07-08T04:05:14;15.10;99.90
32107;DHT22;18622;51.998;10.440;2023-07-08T04:07:42;15.20;99.90
32107;DHT22;18622;51.998;10.440;2023-07-08T04:10:11;15.30;99.90
32107;DHT22;18622;51.998;10.440;2023-07-08T04:12:39;15.30;99.90
32107;DHT22;18622;51.998;10.440;2023-07-08T04:15:09;15.40;99.90
32107;DHT22;18622;51.998;10.440;2023-07-08T04:17:44;15.50;99.90
32107;DHT22;18622;51.998;10.440;2023-07-08T04:20:09;15.50;99.90
32107;DHT22;18622;51.998;10.440;2023-07-08T04:22:38;15.50;99.90
32107;DHT22;18622;51.998;10.440;2023-07-08T04:25:06;15.70;99.90
32107;DHT22;18622;51.998;10.440;2023-07-08T04:27:34;15.70;99.90
32107;DHT22;18622;51.998;10.440;2023-07-08T04:30:01;15.80;99.90
32107;DHT22;18622;51.998;10.440;2023-07-08T04:32:30;15.90;99.90
32107;DHT22;18622;51.998;10.440;2023-07-08T04:34:58;16.00;99.90
32107;DHT22;18622;51.998;10.440;2023-07-08T04:37:26;16.00;99.90
32107;DHT22;18622;51.998;10.440;2023-07-08T04:39:54;16.20;99.90
32107;DHT22;18622;51.998;10.440;2023-07-08T04:42:22;16.20;99.90
32107;DHT22;18622;51.998;10.440;2023-07-08T04:44:50;16.30;99.90
32107;DHT22;18622;51.998;10.440;2023-07-08T04:47:19;16.40;99.90
32107;DHT22;18622;51.998;10.440;2023-07-08T04:49:47;16.40;99.90
32107;DHT22;18622;51.998;10.440;2023-07-08T04:52:15;16.50;99.90
32107;DHT22;18622;51.998;10.440;2023-07-08T04:54:43;16.60;99.90
32107;DHT22;18622;51.998;10.440;2023-07-08T04:57:10;16.70;99.90
32107;DHT22;18622;51.998;10.440;2023-07-08T04:59:38;16.80;99.90
32107;DHT22;18622;51.998;10.440;2023-07-08T05:02:06;16.90;99.90
32107;DHT22;18622;51.998;10.440;2023-07-08T05:04:34;17.00;99.90
32107;DHT22;18622;51.998;10.440;2023-07-08T05:07:02;17.10;99.90
32107;DHT22;18622;51.998;10.440;2023-07-08T05:09:30;17.30;99.90
32107;DHT22;18622;51.998;10.440;2023-07-08T05:11:58;17.40;99.70
32107;DHT22;18622;51.998;10.440;2023-07-08T05:14:26;17.60;99.40
32107;DHT22;18622;51.998;10.440;2023-07-08T05:16:53;17.80;99.10
32107;DHT22;18622;51.998;10.440;2023-07-08T05:19:21;17.90;98.80
32107;DHT22;18622;51.998;10.440;2023-07-08T05:21:50;18.00;98.50
32107;DHT22;18622;51.998;10.440;2023-07-08T05:24:18;18.20;98.10
32107;DHT22;18622;51.998;10.440;2023-07-08T05:26:45;18.40;97.80
32107;DHT22;18622;51.998;10.440;2023-07-08T05:29:13;18.50;97.50
32107;DHT22;18622;51.998;10.440;2023-07-08T05:31:41;18.60;97.10
32107;DHT22;18622;51.998;10.440;2023-07-08T05:34:09;18.70;96.80
32107;DHT22;18622;51.998;10.440;2023-07-08T05:36:36;18.90;96.60
32107;DHT22;18622;51.998;10.440;2023-07-08T05:39:05;19.00;96.40
32107;DHT22;18622;51.998;10.440;2023-07-08T05:41:33;19.00;96.50
32107;DHT22;18622;51.998;10.440;2023-07-08T05:44:01;19.20;96.50
32107;DHT22;18622;51.998;10.440;2023-07-08T05:46:29;19.30;96.30
32107;DHT22;18622;51.998;10.440;2023-07-08T05:48:57;19.30;96.30
32107;DHT22;18622;51.998;10.440;2023-07-08T05:51:24;19.50;96.50
32107;DHT22;18622;51.998;10.440;2023-07-08T05:53:52;19.60;96.50
32107;DHT22;18622;51.998;10.440;2023-07-08T05:56:20;19.70;96.30
32107;DHT22;18622;51.998;10.440;2023-07-08T05:58:48;19.80;96.20
32107;DHT22;18622;51.998;10.440;2023-07-08T06:01:16;19.90;96.20
32107;DHT22;18622;51.998;10.440;2023-07-08T06:03:44;20.00;96.40
32107;DHT22;18622;51.998;10.440;2023-07-08T06:06:11;20.10;96.60
32107;DHT22;18622;51.998;10.440;2023-07-08T06:08:41;20.20;97.00
32107;DHT22;18622;51.998;10.440;2023-07-08T06:11:08;20.30;95.90
32107;DHT22;18622;51.998;10.440;2023-07-08T06:13:36;20.40;95.80
32107;DHT22;18622;51.998;10.440;2023-07-08T06:16:04;20.60;95.70
32107;DHT22;18622;51.998;10.440;2023-07-08T06:18:32;20.70;95.70
32107;DHT22;18622;51.998;10.440;2023-07-08T06:21:00;20.80;95.10
32107;DHT22;18622;51.998;10.440;2023-07-08T06:23:28;21.00;95.00
32107;DHT22;18622;51.998;10.440;2023-07-08T06:25:56;21.10;95.40
32107;DHT22;18622;51.998;10.440;2023-07-08T06:28:24;21.30;95.20
32107;DHT22;18622;51.998;10.440;2023-07-08T06:30:52;21.40;95.20
32107;DHT22;18622;51.998;10.440;2023-07-08T06:33:20;21.40;94.80
32107;DHT22;18622;51.998;10.440;2023-07-08T06:35:47;21.60;94.40
32107;DHT22;18622;51.998;10.440;2023-07-08T06:38:15;21.70;94.20
32107;DHT22;18622;51.998;10.440;2023-07-08T06:40:43;21.70;93.70
32107;DHT22;18622;51.998;10.440;2023-07-08T06:43:11;21.80;93.40
32107;DHT22;18622;51.998;10.440;2023-07-08T06:45:40;21.90;93.10
32107;DHT22;18622;51.998;10.440;2023-07-08T06:48:08;22.10;92.90
32107;DHT22;18622;51.998;10.440;2023-07-08T06:50:37;22.20;92.90
32107;DHT22;18622;51.998;10.440;2023-07-08T06:53:04;22.30;92.50
32107;DHT22;18622;51.998;10.440;2023-07-08T06:55:34;22.40;92.30
32107;DHT22;18622;51.998;10.440;2023-07-08T06:58:01;22.60;92.50
32107;DHT22;18622;51.998;10.440;2023-07-08T07:00:29;22.70;92.50
32107;DHT22;18622;51.998;10.440;2023-07-08T07:02:57;22.80;92.20
32107;DHT22;18622;51.998;10.440;2023-07-08T07:05:25;23.00;92.00
32107;DHT22;18622;51.998;10.440;2023-07-08T07:07:53;23.10;91.20
32107;DHT22;18622;51.998;10.440;2023-07-08T07:10:20;23.20;90.70
32107;DHT22;18622;51.998;10.440;2023-07-08T07:12:48;23.40;91.50
32107;DHT22;18622;51.998;10.440;2023-07-08T07:15:16;23.50;90.80
32107;DHT22;18622;51.998;10.440;2023-07-08T07:17:44;23.60;91.20
32107;DHT22;18622;51.998;10.440;2023-07-08T07:20:12;23.60;91.10
32107;DHT22;18622;51.998;10.440;2023-07-08T07:22:40;23.80;90.40
32107;DHT22;18622;51.998;10.440;2023-07-08T07:25:08;23.90;89.70
32107;DHT22;18622;51.998;10.440;2023-07-08T07:27:36;24.00;90.00
32107;DHT22;18622;51.998;10.440;2023-07-08T07:30:04;24.10;90.40
32107;DHT22;18622;51.998;10.440;2023-07-08T07:32:32;24.20;90.30
32107;DHT22;18622;51.998;10.440;2023-07-08T07:35:01;24.40;90.10
32107;DHT22;18622;51.998;10.440;2023-07-08T07:37:28;24.50;90.20
32107;DHT22;18622;51.998;10.440;2023-07-08T07:39:56;24.50;90.20
32107;DHT22;18622;51.998;10.440;2023-07-08T07:42:26;24.70;88.90
32107;DHT22;18622;51.998;10.440;2023-07-08T07:44:54;24.80;89.60
32107;DHT22;18622;51.998;10.440;2023-07-08T07:47:22;25.00;89.00
32107;DHT22;18622;51.998;10.440;2023-07-08T07:49:49;25.10;86.00
32107;DHT22;18622;51.998;10.440;2023-07-08T07:52:17;25.20;85.30
32107;DHT22;18622;51.998;10.440;2023-07-08T07:54:47;25.30;85.10
32107;DHT22;18622;51.998;10.440;2023-07-08T07:57:15;25.50;84.10
32107;DHT22;18622;51.998;10.440;2023-07-08T07:59:42;25.60;83.90
32107;DHT22;18622;51.998;10.440;2023-07-08T08:02:10;25.70;84.10
32107;DHT22;18622;51.998;10.440;2023-07-08T08:04:38;25.80;84.20
32107;DHT22;18622;51.998;10.440;2023-07-08T08:07:06;25.90;86.00
32107;DHT22;18622;51.998;10.440;2023-07-08T08:09:34;26.10;85.20
32107;DHT22;18622;51.998;10.440;2023-07-08T08:12:03;26.20;85.50
32107;DHT22;18622;51.998;10.440;2023-07-08T08:14:31;26.40;83.00
32107;DHT22;18622;51.998;10.440;2023-07-08T08:16:58;26.60;82.30
32107;DHT22;18622;51.998;10.440;2023-07-08T08:19:26;26.70;81.00
32107;DHT22;18622;51.998;10.440;2023-07-08T08:21:54;26.90;80.30
32107;DHT22;18622;51.998;10.440;2023-07-08T08:24:22;27.00;82.60
32107;DHT22;18622;51.998;10.440;2023-07-08T08:26:50;27.10;78.80
32107;DHT22;18622;51.998;10.440;2023-07-08T08:29:17;27.20;77.20
32107;DHT22;18622;51.998;10.440;2023-07-08T08:31:45;27.40;77.70
32107;DHT22;18622;51.998;10.440;2023-07-08T08:34:13;27.50;79.00
32107;DHT22;18622;51.998;10.440;2023-07-08T08:36:41;27.60;79.50
32107;DHT22;18622;51.998;10.440;2023-07-08T08:39:09;27.80;79.60
32107;DHT22;18622;51.998;10.440;2023-07-08T08:41:38;27.90;78.50
32107;DHT22;18622;51.998;10.440;2023-07-08T08:44:14;28.00;77.10
32107;DHT22;18622;51.998;10.440;2023-07-08T08:46:52;28.10;79.00
32107;DHT22;18622;51.998;10.440;2023-07-08T08:49:24;28.30;78.10
32107;DHT22;18622;51.998;10.440;2023-07-08T08:51:52;28.50;75.50
32107;DHT22;18622;51.998;10.440;2023-07-08T08:54:20;28.80;74.70
32107;DHT22;18622;51.998;10.440;2023-07-08T08:59:55;29.20;74.20
32107;DHT22;18622;51.998;10.440;2023-07-08T09:05:08;29.60;71.20
32107;DHT22;18622;51.998;10.440;2023-07-08T09:13:05;30.60;69.10
32107;DHT22;18622;51.998;10.440;2023-07-08T09:15:34;31.20;67.00
32107;DHT22;18622;51.998;10.440;2023-07-08T09:18:10;31.80;66.80
32107;DHT22;18622;51.998;10.440;2023-07-08T09:20:33;32.40;68.20
32107;DHT22;18622;51.998;10.440;2023-07-08T09:23:07;33.10;63.00
32107;DHT22;18622;51.998;10.440;2023-07-08T09:25:39;33.60;62.00
32107;DHT22;18622;51.998;10.440;2023-07-08T09:28:08;34.20;60.40
32107;DHT22;18622;51.998;10.440;2023-07-08T09:30:35;34.80;57.60
32107;DHT22;18622;51.998;10.440;2023-07-08T09:33:07;35.20;52.00
32107;DHT22;18622;51.998;10.440;2023-07-08T09:35:42;35.50;51.80
32107;DHT22;18622;51.998;10.440;2023-07-08T09:38:21;35.80;50.00
32107;DHT22;18622;51.998;10.440;2023-07-08T09:40:52;36.10;49.10
32107;DHT22;18622;51.998;10.440;2023-07-08T09:43:27;36.40;46.60
32107;DHT22;18622;51.998;10.440;2023-07-08T09:45:59;36.60;44.50
32107;DHT22;18622;51.998;10.440;2023-07-08T09:48:30;36.90;44.00
32107;DHT22;18622;51.998;10.440;2023-07-08T09:50:58;37.30;43.50
32107;DHT22;18622;51.998;10.440;2023-07-08T09:53:26;37.70;43.40
32107;DHT22;18622;51.998;10.440;2023-07-08T09:55:57;38.10;40.50
32107;DHT22;18622;51.998;10.440;2023-07-08T09:58:35;38.30;40.80
32107;DHT22;18622;51.998;10.440;2023-07-08T10:01:13;38.40;40.80
32107;DHT22;18622;51.998;10.440;2023-07-08T10:03:41;38.70;40.40
32107;DHT22;18622;51.998;10.440;2023-07-08T10:06:21;39.00;40.00
32107;DHT22;18622;51.998;10.440;2023-07-08T10:08:49;39.20;39.50
32107;DHT22;18622;51.998;10.440;2023-07-08T10:11:35;39.40;39.90
32107;DHT22;18622;51.998;10.440;2023-07-08T10:14:11;39.70;38.70
32107;DHT22;18622;51.998;10.440;2023-07-08T10:16:39;40.00;39.20
32107;DHT22;18622;51.998;10.440;2023-07-08T10:19:16;40.30;39.40
32107;DHT22;18622;51.998;10.440;2023-07-08T10:21:51;40.70;38.70
32107;DHT22;18622;51.998;10.440;2023-07-08T10:33:09;41.80;37.20
32107;DHT22;18622;51.998;10.440;2023-07-08T10:35:45;42.20;37.30
32107;DHT22;18622;51.998;10.440;2023-07-08T10:38:44;42.40;37.00
32107;DHT22;18622;51.998;10.440;2023-07-08T10:41:21;42.60;36.00
32107;DHT22;18622;51.998;10.440;2023-07-08T10:44:04;42.80;35.50
32107;DHT22;18622;51.998;10.440;2023-07-08T10:46:49;42.80;35.70
32107;DHT22;18622;51.998;10.440;2023-07-08T10:52:17;43.20;34.50
32107;DHT22;18622;51.998;10.440;2023-07-08T10:54:56;43.50;34.60
32107;DHT22;18622;51.998;10.440;2023-07-08T10:57:38;43.80;34.80
32107;DHT22;18622;51.998;10.440;2023-07-08T11:03:03;44.30;33.30
32107;DHT22;18622;51.998;10.440;2023-07-08T11:05:45;44.50;34.30
32107;DHT22;18622;51.998;10.440;2023-07-08T11:08:31;44.80;33.90
32107;DHT22;18622;51.998;10.440;2023-07-08T11:11:06;45.00;32.90
32107;DHT22;18622;51.998;10.440;2023-07-08T11:13:34;45.20;32.60
32107;DHT22;18622;51.998;10.440;2023-07-08T11:16:30;45.30;32.60
32107;DHT22;18622;51.998;10.440;2023-07-08T11:19:01;45.60;32.60
32107;DHT22;18622;51.998;10.440;2023-07-08T11:21:38;46.00;32.20
32107;DHT22;18622;51.998;10.440;2023-07-08T11:24:12;46.30;31.10
32107;DHT22;18622;51.998;10.440;2023-07-08T11:26:45;46.60;31.70
32107;DHT22;18622;51.998;10.440;2023-07-08T11:29:20;46.80;30.80
32107;DHT22;18622;51.998;10.440;2023-07-08T11:31:46;47.00;31.50
32107;DHT22;18622;51.998;10.440;2023-07-08T11:34:16;47.10;31.60
32107;DHT22;18622;51.998;10.440;2023-07-08T11:36:45;47.30;30.90
32107;DHT22;18622;51.998;10.440;2023-07-08T11:39:32;47.50;29.90
32107;DHT22;18622;51.998;10.440;2023-07-08T11:42:16;47.50;29.40
32107;DHT22;18622;51.998;10.440;2023-07-08T11:44:35;47.60;28.80
32107;DHT22;18622;51.998;10.440;2023-07-08T11:47:04;47.90;28.70
32107;DHT22;18622;51.998;10.440;2023-07-08T11:49:32;47.90;29.50
32107;DHT22;18622;51.998;10.440;2023-07-08T11:52:01;47.90;30.20
32107;DHT22;18622;51.998;10.440;2023-07-08T11:54:31;47.90;29.20
32107;DHT22;18622;51.998;10.440;2023-07-08T11:57:15;47.90;28.30
32107;DHT22;18622;51.998;10.440;2023-07-08T11:59:40;47.90;28.30
32107;DHT22;18622;51.998;10.440;2023-07-08T12:02:17;48.00;28.70
32107;DHT22;18622;51.998;10.440;2023-07-08T12:05:11;48.20;28.40
32107;DHT22;18622;51.998;10.440;2023-07-08T12:07:37;48.30;28.10
32107;DHT22;18622;51.998;10.440;2023-07-08T12:10:17;48.40;28.80
32107;DHT22;18622;51.998;10.440;2023-07-08T12:12:47;48.50;27.90
32107;DHT22;18622;51.998;10.440;2023-07-08T12:15:19;48.60;29.00
32107;DHT22;18622;51.998;10.440;2023-07-08T12:17:45;48.80;28.30
32107;DHT22;18622;51.998;10.440;2023-07-08T12:20:29;49.10;29.00
32107;DHT22;18622;51.998;10.440;2023-07-08T12:22:57;49.50;28.00
32107;DHT22;18622;51.998;10.440;2023-07-08T12:25:32;49.70;27.30
32107;DHT22;18622;51.998;10.440;2023-07-08T12:28:02;49.80;27.00
32107;DHT22;18622;51.998;10.440;2023-07-08T12:30:31;49.50;27.60
32107;DHT22;18622;51.998;10.440;2023-07-08T12:33:01;48.90;27.60
32107;DHT22;18622;51.998;10.440;2023-07-08T12:35:32;48.60;27.50
32107;DHT22;18622;51.998;10.440;2023-07-08T12:38:14;48.80;27.20
32107;DHT22;18622;51.998;10.440;2023-07-08T12:40:31;48.70;27.20
32107;DHT22;18622;51.998;10.440;2023-07-08T12:42:59;48.50;28.10
32107;DHT22;18622;51.998;10.440;2023-07-08T12:45:29;48.50;28.40
32107;DHT22;18622;51.998;10.440;2023-07-08T12:47:57;48.70;27.20
32107;DHT22;18622;51.998;10.440;2023-07-08T12:50:25;48.40;27.30
32107;DHT22;18622;51.998;10.440;2023-07-08T12:52:52;48.20;28.80
32107;DHT22;18622;51.998;10.440;2023-07-08T12:55:20;48.00;28.10
32107;DHT22;18622;51.998;10.440;2023-07-08T12:57:50;48.00;28.40
32107;DHT22;18622;51.998;10.440;2023-07-08T13:02:59;48.50;27.10
32107;DHT22;18622;51.998;10.440;2023-07-08T13:05:27;48.40;27.70
32107;DHT22;18622;51.998;10.440;2023-07-08T13:07:54;48.50;27.80
32107;DHT22;18622;51.998;10.440;2023-07-08T13:10:25;48.50;27.20
32107;DHT22;18622;51.998;10.440;2023-07-08T13:12:59;48.40;27.60
32107;DHT22;18622;51.998;10.440;2023-07-08T13:15:35;48.40;27.60
32107;DHT22;18622;51.998;10.440;2023-07-08T13:18:04;48.20;28.80
32107;DHT22;18622;51.998;10.440;2023-07-08T13:20:31;48.20;28.90
32107;DHT22;18622;51.998;10.440;2023-07-08T13:23:01;48.30;29.00
32107;DHT22;18622;51.998;10.440;2023-07-08T13:25:31;48.40;28.40
32107;DHT22;18622;51.998;10.440;2023-07-08T13:28:02;48.20;29.20
32107;DHT22;18622;51.998;10.440;2023-07-08T13:30:31;48.10;29.70
32107;DHT22;18622;51.998;10.440;2023-07-08T13:32:59;48.10;28.10
32107;DHT22;18622;51.998;10.440;2023-07-08T13:35:40;48.10;29.10
32107;DHT22;18622;51.998;10.440;2023-07-08T13:38:18;48.30;29.30
32107;DHT22;18622;51.998;10.440;2023-07-08T13:40:47;48.50;29.50
32107;DHT22;18622;51.998;10.440;2023-07-08T13:43:16;48.60;29.70
32107;DHT22;18622;51.998;10.440;2023-07-08T13:45:45;48.50;29.80
32107;DHT22;18622;51.998;10.440;2023-07-08T13:48:29;48.50;29.00
32107;DHT22;18622;51.998;10.440;2023-07-08T13:51:15;48.50;30.00
32107;DHT22;18622;51.998;10.440;2023-07-08T13:53:44;48.50;29.00
32107;DHT22;18622;51.998;10.440;2023-07-08T13:56:35;48.50;29.40
32107;DHT22;18622;51.998;10.440;2023-07-08T13:58:46;48.50;29.80
32107;DHT22;18622;51.998;10.440;2023-07-08T14:01:23;48.50;29.80
32107;DHT22;18622;51.998;10.440;2023-07-08T14:03:54;48.60;29.80
32107;DHT22;18622;51.998;10.440;2023-07-08T14:06:25;48.70;28.80
32107;DHT22;18622;51.998;10.440;2023-07-08T14:08:56;48.40;29.00
32107;DHT22;18622;51.998;10.440;2023-07-08T14:11:24;47.80;28.30
32107;DHT22;18622;51.998;10.440;2023-07-08T14:13:52;47.40;28.80
32107;DHT22;18622;51.998;10.440;2023-07-08T14:16:26;47.10;30.00
32107;DHT22;18622;51.998;10.440;2023-07-08T14:18:59;46.90;29.60
32107;DHT22;18622;51.998;10.440;2023-07-08T14:21:31;46.80;29.80
32107;DHT22;18622;51.998;10.440;2023-07-08T14:23:59;46.80;29.90
32107;DHT22;18622;51.998;10.440;2023-07-08T14:26:29;47.00;30.00
32107;DHT22;18622;51.998;10.440;2023-07-08T14:28:57;46.90;30.90
32107;DHT22;18622;51.998;10.440;2023-07-08T14:31:26;46.90;30.40
32107;DHT22;18622;51.998;10.440;2023-07-08T14:34:03;47.10;29.90
32107;DHT22;18622;51.998;10.440;2023-07-08T14:36:30;47.20;30.50
32107;DHT22;18622;51.998;10.440;2023-07-08T14:38:58;47.40;30.00
32107;DHT22;18622;51.998;10.440;2023-07-08T14:41:28;47.50;30.00
32107;DHT22;18622;51.998;10.440;2023-07-08T14:43:55;47.80;29.90
32107;DHT22;18622;51.998;10.440;2023-07-08T14:46:23;47.80;29.60
32107;DHT22;18622;51.998;10.440;2023-07-08T14:48:51;47.80;30.00
32107;DHT22;18622;51.998;10.440;2023-07-08T14:51:19;47.80;30.00
32107;DHT22;18622;51.998;10.440;2023-07-08T14:53:47;47.80;31.00
32107;DHT22;18622;51.998;10.440;2023-07-08T14:56:16;47.90;29.20
32107;DHT22;18622;51.998;10.440;2023-07-08T14:58:45;47.90;29.20
32107;DHT22;18622;51.998;10.440;2023-07-08T15:01:17;47.90;29.50
32107;DHT22;18622;51.998;10.440;2023-07-08T15:03:44;47.80;29.40
32107;DHT22;18622;51.998;10.440;2023-07-08T15:06:11;48.10;29.60
32107;DHT22;18622;51.998;10.440;2023-07-08T15:08:39;48.30;30.10
32107;DHT22;18622;51.998;10.440;2023-07-08T15:11:10;48.50;29.70
32107;DHT22;18622;51.998;10.440;2023-07-08T15:13:38;48.70;29.70
32107;DHT22;18622;51.998;10.440;2023-07-08T15:16:12;48.70;28.80
32107;DHT22;18622;51.998;10.440;2023-07-08T15:18:38;48.80;28.70
32107;DHT22;18622;51.998;10.440;2023-07-08T15:21:15;48.80;27.70
32107;DHT22;18622;51.998;10.440;2023-07-08T15:23:40;48.70;28.00
32107;DHT22;18622;51.998;10.440;2023-07-08T15:26:12;48.50;28.60
32107;DHT22;18622;51.998;10.440;2023-07-08T15:28:47;48.60;29.00
32107;DHT22;18622;51.998;10.440;2023-07-08T15:31:21;48.90;27.70
32107;DHT22;18622;51.998;10.440;2023-07-08T15:33:52;48.80;27.20
32107;DHT22;18622;51.998;10.440;2023-07-08T15:36:20;48.60;28.60
32107;DHT22;18622;51.998;10.440;2023-07-08T15:38:48;48.70;28.40
32107;DHT22;18622;51.998;10.440;2023-07-08T15:41:24;49.00;28.90
32107;DHT22;18622;51.998;10.440;2023-07-08T15:43:54;49.30;28.80
32107;DHT22;18622;51.998;10.440;2023-07-08T15:48:56;49.90;28.40
32107;DHT22;18622;51.998;10.440;2023-07-08T15:51:23;50.00;28.40
32107;DHT22;18622;51.998;10.440;2023-07-08T15:53:50;50.20;27.00
32107;DHT22;18622;51.998;10.440;2023-07-08T15:56:18;50.20;28.40
32107;DHT22;18622;51.998;10.440;2023-07-08T15:58:47;50.20;28.20
32107;DHT22;18622;51.998;10.440;2023-07-08T16:01:21;50.20;28.80
32107;DHT22;18622;51.998;10.440;2023-07-08T16:03:50;50.30;28.50
32107;DHT22;18622;51.998;10.440;2023-07-08T16:06:18;50.60;27.50
32107;DHT22;18622;51.998;10.440;2023-07-08T16:08:47;50.60;28.10
32107;DHT22;18622;51.998;10.440;2023-07-08T16:11:30;50.50;28.50
32107;DHT22;18622;51.998;10.440;2023-07-08T16:16:32;50.80;29.10
32107;DHT22;18622;51.998;10.440;2023-07-08T16:19:00;50.80;29.10
32107;DHT22;18622;51.998;10.440;2023-07-08T16:21:28;50.90;28.30
32107;DHT22;18622;51.998;10.440;2023-07-08T16:23:56;50.80;29.00
32107;DHT22;18622;51.998;10.440;2023-07-08T16:26:24;50.60;28.90
32107;DHT22;18622;51.998;10.440;2023-07-08T16:28:51;50.80;28.50
32107;DHT22;18622;51.998;10.440;2023-07-08T16:31:21;50.60;28.60
32107;DHT22;18622;51.998;10.440;2023-07-08T16:33:49;50.50;28.20
32107;DHT22;18622;51.998;10.440;2023-07-08T16:36:23;50.40;28.90
32107;DHT22;18622;51.998;10.440;2023-07-08T16:38:51;50.20;28.90
32107;DHT22;18622;51.998;10.440;2023-07-08T16:41:25;50.20;28.50
32107;DHT22;18622;51.998;10.440;2023-07-08T16:43:53;50.00;29.00
32107;DHT22;18622;51.998;10.440;2023-07-08T16:46:22;49.80;29.20
32107;DHT22;18622;51.998;10.440;2023-07-08T16:48:50;50.00;29.20
32107;DHT22;18622;51.998;10.440;2023-07-08T16:51:27;49.80;29.70
32107;DHT22;18622;51.998;10.440;2023-07-08T16:53:56;49.70;30.00
32107;DHT22;18622;51.998;10.440;2023-07-08T16:56:24;49.60;30.00
32107;DHT22;18622;51.998;10.440;2023-07-08T16:58:52;49.50;30.00
32107;DHT22;18622;51.998;10.440;2023-07-08T17:01:22;49.40;29.90
32107;DHT22;18622;51.998;10.440;2023-07-08T17:03:52;49.20;30.50
32107;DHT22;18622;51.998;10.440;2023-07-08T17:06:21;48.90;29.60
32107;DHT22;18622;51.998;10.440;2023-07-08T17:08:48;48.60;30.50
32107;DHT22;18622;51.998;10.440;2023-07-08T17:11:16;48.30;30.60
32107;DHT22;18622;51.998;10.440;2023-07-08T17:13:44;48.10;30.90
32107;DHT22;18622;51.998;10.440;2023-07-08T17:16:19;47.80;30.50
32107;DHT22;18622;51.998;10.440;2023-07-08T17:18:45;47.30;31.00
32107;DHT22;18622;51.998;10.440;2023-07-08T17:21:15;46.70;31.50
32107;DHT22;18622;51.998;10.440;2023-07-08T17:23:43;46.20;31.90
32107;DHT22;18622;51.998;10.440;2023-07-08T17:26:10;45.40;32.30
32107;DHT22;18622;51.998;10.440;2023-07-08T17:28:37;44.20;32.60
32107;DHT22;18622;51.998;10.440;2023-07-08T17:31:05;42.80;33.70
32107;DHT22;18622;51.998;10.440;2023-07-08T17:33:35;41.30;35.00
32107;DHT22;18622;51.998;10.440;2023-07-08T17:36:10;40.10;35.70
32107;DHT22;18622;51.998;10.440;2023-07-08T17:38:49;39.10;36.20
32107;DHT22;18622;51.998;10.440;2023-07-08T17:41:18;38.10;37.90
32107;DHT22;18622;51.998;10.440;2023-07-08T17:43:46;37.20;39.10
32107;DHT22;18622;51.998;10.440;2023-07-08T17:46:17;36.50;40.10
32107;DHT22;18622;51.998;10.440;2023-07-08T17:48:45;35.70;40.90
32107;DHT22;18622;51.998;10.440;2023-07-08T17:51:14;34.90;42.10
32107;DHT22;18622;51.998;10.440;2023-07-08T17:53:42;34.10;43.50
32107;DHT22;18622;51.998;10.440;2023-07-08T17:56:16;33.40;44.00
32107;DHT22;18622;51.998;10.440;2023-07-08T17:58:43;32.70;45.90
32107;DHT22;18622;51.998;10.440;2023-07-08T18:01:11;32.10;46.40
32107;DHT22;18622;51.998;10.440;2023-07-08T18:03:39;31.60;47.50
32107;DHT22;18622;51.998;10.440;2023-07-08T18:06:06;31.30;48.20
32107;DHT22;18622;51.998;10.440;2023-07-08T18:08:34;30.80;48.80
32107;DHT22;18622;51.998;10.440;2023-07-08T18:11:02;30.40;49.60
32107;DHT22;18622;51.998;10.440;2023-07-08T18:13:32;30.10;50.00
32107;DHT22;18622;51.998;10.440;2023-07-08T18:16:01;29.80;50.50
32107;DHT22;18622;51.998;10.440;2023-07-08T18:18:29;29.50;51.10
32107;DHT22;18622;51.998;10.440;2023-07-08T18:20:56;29.30;52.00
32107;DHT22;18622;51.998;10.440;2023-07-08T18:23:27;28.90;52.70
32107;DHT22;18622;51.998;10.440;2023-07-08T18:25:56;28.70;53.00
32107;DHT22;18622;51.998;10.440;2023-07-08T18:28:24;28.40;53.50
32107;DHT22;18622;51.998;10.440;2023-07-08T18:30:53;28.20;53.80
32107;DHT22;18622;51.998;10.440;2023-07-08T18:33:20;28.00;54.20
32107;DHT22;18622;51.998;10.440;2023-07-08T18:35:48;27.70;54.50
32107;DHT22;18622;51.998;10.440;2023-07-08T18:38:16;27.50;54.60
32107;DHT22;18622;51.998;10.440;2023-07-08T18:40:44;27.30;55.10
32107;DHT22;18622;51.998;10.440;2023-07-08T18:43:21;27.10;55.30
32107;DHT22;18622;51.998;10.440;2023-07-08T18:45:49;27.00;55.50
32107;DHT22;18622;51.998;10.440;2023-07-08T18:48:18;26.80;56.00
32107;DHT22;18622;51.998;10.440;2023-07-08T18:50:54;26.60;56.30
32107;DHT22;18622;51.998;10.440;2023-07-08T18:53:24;26.40;56.50
32107;DHT22;18622;51.998;10.440;2023-07-08T18:55:51;26.20;57.10
32107;DHT22;18622;51.998;10.440;2023-07-08T18:58:20;26.10;57.20
32107;DHT22;18622;51.998;10.440;2023-07-08T19:00:48;25.90;57.60
32107;DHT22;18622;51.998;10.440;2023-07-08T19:03:24;25.70;57.80
32107;DHT22;18622;51.998;10.440;2023-07-08T19:05:53;25.60;57.90
32107;DHT22;18622;51.998;10.440;2023-07-08T19:08:22;25.40;58.50
32107;DHT22;18622;51.998;10.440;2023-07-08T19:10:54;25.20;58.80
32107;DHT22;18622;51.998;10.440;2023-07-08T19:13:23;25.00;59.40
32107;DHT22;18622;51.998;10.440;2023-07-08T19:15:51;24.90;59.80
32107;DHT22;18622;51.998;10.440;2023-07-08T19:18:19;24.80;60.50
32107;DHT22;18622;51.998;10.440;2023-07-08T19:20:47;24.60;61.00
32107;DHT22;18622;51.998;10.440;2023-07-08T19:23:18;24.40;61.40
32107;DHT22;18622;51.998;10.440;2023-07-08T19:25:47;24.30;61.60
32107;DHT22;18622;51.998;10.440;2023-07-08T19:28:15;24.20;62.30
32107;DHT22;18622;51.998;10.440;2023-07-08T19:30:45;24.00;62.40
32107;DHT22;18622;51.998;10.440;2023-07-08T19:33:14;23.90;62.90
32107;DHT22;18622;51.998;10.440;2023-07-08T19:35:45;23.80;63.70
32107;DHT22;18622;51.998;10.440;2023-07-08T19:38:16;23.60;64.00
32107;DHT22;18622;51.998;10.440;2023-07-08T19:40:47;23.50;64.60